sensor_id;sensor_type;location;lat;lon;timestamp;pressure;altitude;pressure_sealevel;temperature;humidity
29383;BME280;16365;51.598;7.668;2023-04-03T00:00:16;102294.81;;;10.15;45.08
29383;BME280;16365;51.598;7.668;2023-04-03T00:02:43;102296.47;;;10.16;44.99
29383;BME280;16365;51.598;7.668;2023-04-03T00:05:10;102301.72;;;10.18;44.85
29383;BME280;16365;51.598;7.668;2023-04-03T00:07:36;102298.97;;;10.18;45.03
29383;BME280;16365;51.598;7.668;2023-04-03T00:10:03;102305.31;;;10.18;44.74
29383;BME280;16365;51.598;7.668;2023-04-03T00:12:30;102306.16;;;10.19;44.73
29383;BME280;16365;51.598;7.668;2023-04-03T00:14:57;102304.19;;;10.19;44.62
29383;BME280;16365;51.598;7.668;2023-04-03T00:17:23;102308.09;;;10.18;44.51
29383;BME280;16365;51.598;7.668;2023-04-03T00:19:50;102310.03;;;10.18;44.82
29383;BME280;16365;51.598;7.668;2023-04-03T00:22:16;102299.25;;;10.16;44.67
29383;BME280;16365;51.598;7.668;2023-04-03T00:24:43;102304.78;;;10.16;44.16
29383;BME280;16365;51.598;7.668;2023-04-03T00:27:10;102306.44;;;10.17;44.26
29383;BME280;16365;51.598;7.668;2023-04-03T00:29:37;102303.97;;;10.16;44.61
29383;BME280;16365;51.598;7.668;2023-04-03T00:32:04;102296.47;;;10.16;44.21
29383;BME280;16365;51.598;7.668;2023-04-03T00:34:30;102305.06;;;10.15;44.80
29383;BME280;16365;51.598;7.668;2023-04-03T00:36:57;102295.09;;;10.14;44.41
29383;BME280;16365;51.598;7.668;2023-04-03T00:39:23;102301.75;;;10.13;44.40
29383;BME280;16365;51.598;7.668;2023-04-03T00:41:50;102306.78;;;10.11;43.89
29383;BME280;16365;51.598;7.668;2023-04-03T00:47:13;102303.72;;;10.07;44.24
29383;BME280;16365;51.598;7.668;2023-04-03T00:49:42;102299.56;;;10.04;43.89
29383;BME280;16365;51.598;7.668;2023-04-03T00:52:14;102311.50;;;10.00;43.93
29383;BME280;16365;51.598;7.668;2023-04-03T00:54:43;102313.47;;;9.99;44.11
29383;BME280;16365;51.598;7.668;2023-04-03T00:57:12;102315.13;;;9.95;44.24
29383;BME280;16365;51.598;7.668;2023-04-03T00:59:43;102311.84;;;9.93;44.04
29383;BME280;16365;51.598;7.668;2023-04-03T01:02:11;102317.66;;;9.92;43.71
29383;BME280;16365;51.598;7.668;2023-04-03T01:04:40;102309.09;;;9.88;43.63
29383;BME280;16365;51.598;7.668;2023-04-03T01:07:10;102317.69;;;9.87;44.12
29383;BME280;16365;51.598;7.668;2023-04-03T01:09:38;102315.19;;;9.85;44.06
29383;BME280;16365;51.598;7.668;2023-04-03T01:12:18;102316.88;;;9.81;43.75
29383;BME280;16365;51.598;7.668;2023-04-03T01:14:46;102318.53;;;9.82;44.47
29383;BME280;16365;51.598;7.668;2023-04-03T01:25:52;102327.44;;;9.69;43.71
29383;BME280;16365;51.598;7.668;2023-04-03T01:28:28;102321.63;;;9.65;44.01
29383;BME280;16365;51.598;7.668;2023-04-03T01:33:49;102328.03;;;9.61;44.08
29383;BME280;16365;51.598;7.668;2023-04-03T01:36:24;102323.31;;;9.56;44.22
29383;BME280;16365;51.598;7.668;2023-04-03T01:38:53;102326.38;;;9.55;43.97
29383;BME280;16365;51.598;7.668;2023-04-03T01:41:20;102322.22;;;9.52;44.42
29383;BME280;16365;51.598;7.668;2023-04-03T01:43:48;102325.28;;;9.50;43.82
29383;BME280;16365;51.598;7.668;2023-04-03T01:46:18;102323.94;;;9.48;43.79
29383;BME280;16365;51.598;7.668;2023-04-03T01:48:46;102323.06;;;9.47;44.18
29383;BME280;16365;51.598;7.668;2023-04-03T01:51:14;102334.44;;;9.46;44.14
29383;BME280;16365;51.598;7.668;2023-04-03T01:53:40;102336.38;;;9.45;44.23
29383;BME280;16365;51.598;7.668;2023-04-03T01:56:07;102334.16;;;9.42;44.35
29383;BME280;16365;51.598;7.668;2023-04-03T01:58:34;102334.44;;;9.41;43.95
29383;BME280;16365;51.598;7.668;2023-04-03T02:01:00;102335.00;;;9.38;44.13
29383;BME280;16365;51.598;7.668;2023-04-03T02:03:27;102331.69;;;9.36;44.37
29383;BME280;16365;51.598;7.668;2023-04-03T02:05:54;102337.78;;;9.33;44.31
29383;BME280;16365;51.598;7.668;2023-04-03T02:08:20;102346.66;;;9.30;44.47
29383;BME280;16365;51.598;7.668;2023-04-03T02:10:48;102338.63;;;9.28;44.00
29383;BME280;16365;51.598;7.668;2023-04-03T02:13:16;102340.00;;;9.25;43.43
29383;BME280;16365;51.598;7.668;2023-04-03T02:15:43;102336.72;;;9.23;43.99
29383;BME280;16365;51.598;7.668;2023-04-03T02:18:09;102338.38;;;9.19;44.40
29383;BME280;16365;51.598;7.668;2023-04-03T02:20:36;102334.22;;;9.17;44.10
29383;BME280;16365;51.598;7.668;2023-04-03T02:23:03;102348.06;;;9.12;44.11
29383;BME280;16365;51.598;7.668;2023-04-03T02:25:30;102345.00;;;9.08;43.78
29383;BME280;16365;51.598;7.668;2023-04-03T02:27:57;102345.28;;;9.07;44.75
29383;BME280;16365;51.598;7.668;2023-04-03T02:30:24;102348.34;;;9.05;44.79
29383;BME280;16365;51.598;7.668;2023-04-03T02:32:51;102356.06;;;9.03;44.06
29383;BME280;16365;51.598;7.668;2023-04-03T02:35:17;102355.81;;;8.99;43.97
29383;BME280;16365;51.598;7.668;2023-04-03T02:37:44;102357.19;;;8.97;43.92
29383;BME280;16365;51.598;7.668;2023-04-03T02:40:11;102361.31;;;8.94;44.37
29383;BME280;16365;51.598;7.668;2023-04-03T02:42:37;102366.31;;;8.92;44.58
29383;BME280;16365;51.598;7.668;2023-04-03T02:45:05;102361.63;;;8.88;44.65
29383;BME280;16365;51.598;7.668;2023-04-03T02:47:31;102361.06;;;8.86;44.55
29383;BME280;16365;51.598;7.668;2023-04-03T02:49:58;102367.97;;;8.83;44.54
29383;BME280;16365;51.598;7.668;2023-04-03T02:52:24;102366.31;;;8.82;44.66
29383;BME280;16365;51.598;7.668;2023-04-03T02:54:50;102365.78;;;8.80;44.26
29383;BME280;16365;51.598;7.668;2023-04-03T02:57:17;102366.03;;;8.79;44.61
29383;BME280;16365;51.598;7.668;2023-04-03T02:59:43;102369.91;;;8.78;43.92
29383;BME280;16365;51.598;7.668;2023-04-03T03:02:10;102362.97;;;8.75;44.18
29383;BME280;16365;51.598;7.668;2023-04-03T03:04:37;102364.09;;;8.74;44.59
29383;BME280;16365;51.598;7.668;2023-04-03T03:07:04;102368.78;;;8.73;44.43
29383;BME280;16365;51.598;7.668;2023-04-03T03:09:30;102367.97;;;8.73;44.96
29383;BME280;16365;51.598;7.668;2023-04-03T03:11:57;102361.59;;;8.72;44.18
29383;BME280;16365;51.598;7.668;2023-04-03T03:14:23;102364.66;;;8.71;44.15
29383;BME280;16365;51.598;7.668;2023-04-03T03:16:50;102355.25;;;8.72;44.18
29383;BME280;16365;51.598;7.668;2023-04-03T03:19:16;102367.41;;;8.71;44.35
29383;BME280;16365;51.598;7.668;2023-04-03T03:21:42;102366.59;;;8.70;44.81
29383;BME280;16365;51.598;7.668;2023-04-03T03:24:09;102364.91;;;8.69;44.78
29383;BME280;16365;51.598;7.668;2023-04-03T03:26:35;102365.19;;;8.68;44.55
29383;BME280;16365;51.598;7.668;2023-04-03T03:29:02;102362.72;;;8.66;44.93
29383;BME280;16365;51.598;7.668;2023-04-03T03:31:28;102374.03;;;8.65;44.16
29383;BME280;16365;51.598;7.668;2023-04-03T03:33:55;102367.94;;;8.63;44.39
29383;BME280;16365;51.598;7.668;2023-04-03T03:36:21;102363.53;;;8.62;44.56
29383;BME280;16365;51.598;7.668;2023-04-03T03:38:48;102377.06;;;8.58;44.51
29383;BME280;16365;51.598;7.668;2023-04-03T03:41:15;102371.00;;;8.56;44.44
29383;BME280;16365;51.598;7.668;2023-04-03T03:43:41;102377.88;;;8.54;44.85
29383;BME280;16365;51.598;7.668;2023-04-03T03:46:08;102374.00;;;8.49;44.21
29383;BME280;16365;51.598;7.668;2023-04-03T03:48:34;102371.81;;;8.46;44.56
29383;BME280;16365;51.598;7.668;2023-04-03T03:51:01;102371.50;;;8.43;44.22
29383;BME280;16365;51.598;7.668;2023-04-03T03:53:27;102374.56;;;8.41;44.63
29383;BME280;16365;51.598;7.668;2023-04-03T03:55:54;102378.13;;;8.37;44.89
29383;BME280;16365;51.598;7.668;2023-04-03T03:58:20;102367.88;;;8.32;44.41
29383;BME280;16365;51.598;7.668;2023-04-03T04:00:46;102370.06;;;8.30;44.93
29383;BME280;16365;51.598;7.668;2023-04-03T04:03:13;102386.09;;;8.28;45.22
29383;BME280;16365;51.598;7.668;2023-04-03T04:05:40;102385.50;;;8.26;44.59
29383;BME280;16365;51.598;7.668;2023-04-03T04:08:06;102381.38;;;8.23;44.54
29383;BME280;16365;51.598;7.668;2023-04-03T04:10:33;102386.31;;;8.21;45.20
29383;BME280;16365;51.598;7.668;2023-04-03T04:13:00;102389.94;;;8.22;45.13
29383;BME280;16365;51.598;7.668;2023-04-03T04:15:26;102395.47;;;8.22;44.98
29383;BME280;16365;51.598;7.668;2023-04-03T04:17:53;102387.44;;;8.20;45.12
29383;BME280;16365;51.598;7.668;2023-04-03T04:20:20;102385.78;;;8.19;44.67
29383;BME280;16365;51.598;7.668;2023-04-03T04:22:46;102386.88;;;8.18;44.64
29383;BME280;16365;51.598;7.668;2023-04-03T04:25:13;102389.34;;;8.15;44.75
29383;BME280;16365;51.598;7.668;2023-04-03T04:27:40;102389.88;;;8.12;45.14
29383;BME280;16365;51.598;7.668;2023-04-03T04:30:07;102394.03;;;8.09;45.14
29383;BME280;16365;51.598;7.668;2023-04-03T04:32:33;102394.31;;;8.08;45.15
29383;BME280;16365;51.598;7.668;2023-04-03T04:35:00;102394.00;;;8.04;44.67
29383;BME280;16365;51.598;7.668;2023-04-03T04:37:27;102389.84;;;8.02;45.20
29383;BME280;16365;51.598;7.668;2023-04-03T04:39:54;102393.69;;;8.01;44.65
29383;BME280;16365;51.598;7.668;2023-04-03T04:42:20;102397.84;;;7.98;44.68
29383;BME280;16365;51.598;7.668;2023-04-03T04:44:47;102397.28;;;7.96;44.83
29383;BME280;16365;51.598;7.668;2023-04-03T04:47:14;102403.91;;;7.95;44.88
29383;BME280;16365;51.598;7.668;2023-04-03T04:49:40;102411.06;;;7.91;44.76
29383;BME280;16365;51.598;7.668;2023-04-03T04:52:07;102413.28;;;7.89;45.25
29383;BME280;16365;51.598;7.668;2023-04-03T04:54:33;102414.63;;;7.86;45.34
29383;BME280;16365;51.598;7.668;2023-04-03T04:57:00;102409.66;;;7.83;45.25
29383;BME280;16365;51.598;7.668;2023-04-03T04:59:26;102410.72;;;7.82;45.28
29383;BME280;16365;51.598;7.668;2023-04-03T05:01:53;102420.94;;;7.82;45.10
29383;BME280;16365;51.598;7.668;2023-04-03T05:04:19;102420.41;;;7.80;45.02
29383;BME280;16365;51.598;7.668;2023-04-03T05:06:46;102421.50;;;7.79;45.34
29383;BME280;16365;51.598;7.668;2023-04-03T05:09:13;102428.09;;;7.78;45.43
29383;BME280;16365;51.598;7.668;2023-04-03T05:11:39;102423.13;;;7.75;44.96
29383;BME280;16365;51.598;7.668;2023-04-03T05:14:06;102430.28;;;7.70;45.25
29383;BME280;16365;51.598;7.668;2023-04-03T05:16:33;102435.22;;;7.68;45.07
29383;BME280;16365;51.598;7.668;2023-04-03T05:18:59;102434.66;;;7.66;45.60
29383;BME280;16365;51.598;7.668;2023-04-03T05:21:26;102437.94;;;7.63;45.25
29383;BME280;16365;51.598;7.668;2023-04-03T05:23:54;102436.00;;;7.64;45.67
29383;BME280;16365;51.598;7.668;2023-04-03T05:26:20;102441.81;;;7.62;45.66
29383;BME280;16365;51.598;7.668;2023-04-03T05:28:47;102450.63;;;7.59;45.12
29383;BME280;16365;51.598;7.668;2023-04-03T05:31:13;102439.84;;;7.58;45.50
29383;BME280;16365;51.598;7.668;2023-04-03T05:33:41;102438.19;;;7.57;45.19
29383;BME280;16365;51.598;7.668;2023-04-03T05:36:07;102450.56;;;7.54;45.13
29383;BME280;16365;51.598;7.668;2023-04-03T05:38:34;102454.19;;;7.55;45.57
29383;BME280;16365;51.598;7.668;2023-04-03T05:41:01;102455.25;;;7.54;45.28
29383;BME280;16365;51.598;7.668;2023-04-03T05:43:27;102462.72;;;7.53;45.15
29383;BME280;16365;51.598;7.668;2023-04-03T05:45:54;102465.75;;;7.52;45.27
29383;BME280;16365;51.598;7.668;2023-04-03T05:48:20;102463.81;;;7.52;45.54
29383;BME280;16365;51.598;7.668;2023-04-03T05:50:47;102474.03;;;7.52;45.30
29383;BME280;16365;51.598;7.668;2023-04-03T05:53:27;102471.78;;;7.48;45.09
29383;BME280;16365;51.598;7.668;2023-04-03T05:55:54;102478.72;;;7.51;45.10
29383;BME280;16365;51.598;7.668;2023-04-03T05:58:20;102482.31;;;7.52;45.75
29383;BME280;16365;51.598;7.668;2023-04-03T06:00:47;102481.19;;;7.53;45.43
29383;BME280;16365;51.598;7.668;2023-04-03T06:03:13;102487.00;;;7.51;45.36
29383;BME280;16365;51.598;7.668;2023-04-03T06:05:40;102491.97;;;7.54;46.04
29383;BME280;16365;51.598;7.668;2023-04-03T06:08:07;102493.66;;;7.55;45.66
29383;BME280;16365;51.598;7.668;2023-04-03T06:10:35;102489.53;;;7.58;45.29
29383;BME280;16365;51.598;7.668;2023-04-03T06:13:02;102497.28;;;7.61;45.50
29383;BME280;16365;51.598;7.668;2023-04-03T06:15:29;102494.84;;;7.64;45.31
29383;BME280;16365;51.598;7.668;2023-04-03T06:17:56;102499.81;;;7.67;45.08
29383;BME280;16365;51.598;7.668;2023-04-03T06:20:23;102498.19;;;7.71;45.66
29383;BME280;16365;51.598;7.668;2023-04-03T06:22:49;102504.84;;;7.76;45.34
29383;BME280;16365;51.598;7.668;2023-04-03T06:25:17;102496.88;;;7.79;45.64
29383;BME280;16365;51.598;7.668;2023-04-03T06:27:45;102499.91;;;7.83;44.94
29383;BME280;16365;51.598;7.668;2023-04-03T06:30:11;102504.63;;;7.87;45.26
29383;BME280;16365;51.598;7.668;2023-04-03T06:32:38;102504.13;;;7.90;44.96
29383;BME280;16365;51.598;7.668;2023-04-03T06:35:05;102501.91;;;7.92;45.04
29383;BME280;16365;51.598;7.668;2023-04-03T06:37:32;102502.22;;;7.96;45.27
29383;BME280;16365;51.598;7.668;2023-04-03T06:39:59;102503.88;;;7.97;44.88
29383;BME280;16365;51.598;7.668;2023-04-03T06:42:26;102498.09;;;7.98;45.01
29383;BME280;16365;51.598;7.668;2023-04-03T06:44:53;102510.28;;;8.03;45.31
29383;BME280;16365;51.598;7.668;2023-04-03T06:47:19;102506.44;;;8.04;45.02
29383;BME280;16365;51.598;7.668;2023-04-03T06:49:46;102513.31;;;8.06;45.09
29383;BME280;16365;51.598;7.668;2023-04-03T06:52:13;102513.63;;;8.10;45.03
29383;BME280;16365;51.598;7.668;2023-04-03T06:54:39;102517.81;;;8.12;45.20
29383;BME280;16365;51.598;7.668;2023-04-03T06:57:07;102510.06;;;8.14;45.16
29383;BME280;16365;51.598;7.668;2023-04-03T06:59:34;102515.91;;;8.18;44.50
29383;BME280;16365;51.598;7.668;2023-04-03T07:02:01;102516.47;;;8.20;44.75
29383;BME280;16365;51.598;7.668;2023-04-03T07:04:27;102519.81;;;8.22;44.44
29383;BME280;16365;51.598;7.668;2023-04-03T07:06:54;102520.91;;;8.26;45.05
29383;BME280;16365;51.598;7.668;2023-04-03T07:09:21;102526.19;;;8.28;44.56
29383;BME280;16365;51.598;7.668;2023-04-03T07:11:47;102527.56;;;8.30;44.71
29383;BME280;16365;51.598;7.668;2023-04-03T07:14:14;102532.84;;;8.32;44.98
29383;BME280;16365;51.598;7.668;2023-04-03T07:16:40;102541.41;;;8.35;44.39
29383;BME280;16365;51.598;7.668;2023-04-03T07:19:08;102541.19;;;8.37;44.36
29383;BME280;16365;51.598;7.668;2023-04-03T07:21:35;102546.16;;;8.40;44.43
29383;BME280;16365;51.598;7.668;2023-04-03T07:24:02;102543.69;;;8.43;45.12
29383;BME280;16365;51.598;7.668;2023-04-03T07:26:28;102546.19;;;8.45;44.44
29383;BME280;16365;51.598;7.668;2023-04-03T07:28:55;102545.38;;;8.49;44.55
29383;BME280;16365;51.598;7.668;2023-04-03T07:31:21;102552.03;;;8.54;44.78
29383;BME280;16365;51.598;7.668;2023-04-03T07:33:48;102558.69;;;8.58;44.11
29383;BME280;16365;51.598;7.668;2023-04-03T07:36:17;102557.91;;;8.62;44.16
29383;BME280;16365;51.598;7.668;2023-04-03T07:38:43;102551.56;;;8.67;44.80
29383;BME280;16365;51.598;7.668;2023-04-03T07:41:14;102566.78;;;8.74;44.66
29383;BME280;16365;51.598;7.668;2023-04-03T07:43:41;102556.03;;;8.83;44.81
29383;BME280;16365;51.598;7.668;2023-04-03T07:46:08;102553.88;;;8.90;44.89
29383;BME280;16365;51.598;7.668;2023-04-03T07:48:35;102553.31;;;8.98;43.73
29383;BME280;16365;51.598;7.668;2023-04-03T07:51:03;102552.25;;;9.05;43.90
29383;BME280;16365;51.598;7.668;2023-04-03T07:53:30;102559.75;;;9.14;44.04
29383;BME280;16365;51.598;7.668;2023-04-03T07:55:58;102557.53;;;9.21;43.86
29383;BME280;16365;51.598;7.668;2023-04-03T07:58:25;102563.09;;;9.32;43.85
29383;BME280;16365;51.598;7.668;2023-04-03T08:00:52;102569.22;;;9.39;43.96
29383;BME280;16365;51.598;7.668;2023-04-03T08:03:19;102572.25;;;9.47;44.17
29383;BME280;16365;51.598;7.668;2023-04-03T08:05:47;102571.69;;;9.56;43.40
29383;BME280;16365;51.598;7.668;2023-04-03T08:08:17;102573.09;;;9.63;42.65
29383;BME280;16365;51.598;7.668;2023-04-03T08:10:53;102578.66;;;9.73;43.44
29383;BME280;16365;51.598;7.668;2023-04-03T08:13:21;102568.38;;;9.84;43.83
29383;BME280;16365;51.598;7.668;2023-04-03T08:15:47;102567.84;;;9.92;42.84
29383;BME280;16365;51.598;7.668;2023-04-03T08:18:15;102566.72;;;9.98;42.91
29383;BME280;16365;51.598;7.668;2023-04-03T08:20:42;102581.09;;;10.05;42.58
29383;BME280;16365;51.598;7.668;2023-04-03T08:23:09;102570.88;;;10.11;43.12
29383;BME280;16365;51.598;7.668;2023-04-03T08:25:41;102577.78;;;10.14;41.44
29383;BME280;16365;51.598;7.668;2023-04-03T08:28:08;102563.38;;;10.17;42.22
29383;BME280;16365;51.598;7.668;2023-04-03T08:30:34;102568.63;;;10.18;42.01
29383;BME280;16365;51.598;7.668;2023-04-03T08:33:03;102566.13;;;10.22;41.81
29383;BME280;16365;51.598;7.668;2023-04-03T08:35:31;102562.81;;;10.25;41.83
29383;BME280;16365;51.598;7.668;2023-04-03T08:37:57;102555.59;;;10.29;41.53
29383;BME280;16365;51.598;7.668;2023-04-03T08:40:24;102560.31;;;10.34;41.68
29383;BME280;16365;51.598;7.668;2023-04-03T08:42:58;102559.47;;;10.38;41.30
29383;BME280;16365;51.598;7.668;2023-04-03T08:45:50;102568.59;;;10.44;40.27
29383;BME280;16365;51.598;7.668;2023-04-03T08:48:21;102572.75;;;10.51;40.74
29383;BME280;16365;51.598;7.668;2023-04-03T08:50:52;102564.41;;;10.57;40.79
29383;BME280;16365;51.598;7.668;2023-04-03T08:53:25;102560.78;;;10.61;40.88
29383;BME280;16365;51.598;7.668;2023-04-03T08:55:55;102571.56;;;10.68;41.09
29383;BME280;16365;51.598;7.668;2023-04-03T08:58:24;102567.13;;;10.72;41.22
29383;BME280;16365;51.598;7.668;2023-04-03T09:01:03;102571.56;;;10.73;39.56
29383;BME280;16365;51.598;7.668;2023-04-03T09:03:33;102555.75;;;10.78;40.40
29383;BME280;16365;51.598;7.668;2023-04-03T09:06:18;102559.91;;;10.76;38.23
29383;BME280;16365;51.598;7.668;2023-04-03T09:15:05;102570.44;;;10.79;38.16
29383;BME280;16365;51.598;7.668;2023-04-03T09:20:24;102576.22;;;10.82;37.84
29383;BME280;16365;51.598;7.668;2023-04-03T09:22:54;102583.72;;;10.87;39.38
29383;BME280;16365;51.598;7.668;2023-04-03T09:25:29;102560.97;;;10.85;38.10
29383;BME280;16365;51.598;7.668;2023-04-03T09:28:00;102574.00;;;10.90;39.13
29383;BME280;16365;51.598;7.668;2023-04-03T09:30:28;102575.34;;;10.92;39.20
29383;BME280;16365;51.598;7.668;2023-04-03T09:32:56;102587.84;;;10.95;38.95
29383;BME280;16365;51.598;7.668;2023-04-03T09:35:27;102564.78;;;10.99;38.07
29383;BME280;16365;51.598;7.668;2023-04-03T09:40:37;102575.81;;;11.15;38.79
29383;BME280;16365;51.598;7.668;2023-04-03T09:43:30;102565.22;;;11.17;37.21
29383;BME280;16365;51.598;7.668;2023-04-03T09:46:17;102556.59;;;11.23;37.59
29383;BME280;16365;51.598;7.668;2023-04-03T09:48:51;102572.66;;;11.31;38.26
29383;BME280;16365;51.598;7.668;2023-04-03T09:51:33;102564.00;;;11.38;39.51
29383;BME280;16365;51.598;7.668;2023-04-03T09:53:59;102556.16;;;11.45;38.97
29383;BME280;16365;51.598;7.668;2023-04-03T09:56:30;102560.03;;;11.49;37.25
29383;BME280;16365;51.598;7.668;2023-04-03T10:01:29;102555.78;;;11.62;38.24
29383;BME280;16365;51.598;7.668;2023-04-03T10:06:34;102545.09;;;11.74;37.31
29383;BME280;16365;51.598;7.668;2023-04-03T10:12:06;102548.13;;;11.83;36.16
29383;BME280;16365;51.598;7.668;2023-04-03T10:14:38;102541.13;;;11.91;37.30
29383;BME280;16365;51.598;7.668;2023-04-03T10:19:55;102530.19;;;11.99;34.76
29383;BME280;16365;51.598;7.668;2023-04-03T10:25:21;102516.47;;;12.08;34.64
29383;BME280;16365;51.598;7.668;2023-04-03T10:27:54;102533.94;;;12.14;36.34
29383;BME280;16365;51.598;7.668;2023-04-03T10:30:30;102524.47;;;12.15;34.90
29383;BME280;16365;51.598;7.668;2023-04-03T10:36:07;102527.44;;;12.23;34.45
29383;BME280;16365;51.598;7.668;2023-04-03T10:38:54;102532.66;;;12.30;34.76
29383;BME280;16365;51.598;7.668;2023-04-03T10:44:32;102517.75;;;12.45;33.83
29383;BME280;16365;51.598;7.668;2023-04-03T10:47:22;102519.06;;;12.52;33.75
29383;BME280;16365;51.598;7.668;2023-04-03T10:49:59;102528.69;;;12.60;34.66
29383;BME280;16365;51.598;7.668;2023-04-03T10:52:38;102527.47;;;12.66;35.11
29383;BME280;16365;51.598;7.668;2023-04-03T10:57:40;102518.47;;;12.74;34.18
29383;BME280;16365;51.598;7.668;2023-04-03T11:00:17;102503.16;;;12.77;33.38
29383;BME280;16365;51.598;7.668;2023-04-03T11:02:51;102522.00;;;12.80;32.55
29383;BME280;16365;51.598;7.668;2023-04-03T11:05:34;102535.41;;;12.78;30.68
29383;BME280;16365;51.598;7.668;2023-04-03T11:08:11;102527.00;;;12.83;32.57
29383;BME280;16365;51.598;7.668;2023-04-03T11:10:46;102511.19;;;12.78;31.24
29383;BME280;16365;51.598;7.668;2023-04-03T11:13:18;102512.59;;;12.76;31.56
29383;BME280;16365;51.598;7.668;2023-04-03T11:15:46;102517.66;;;12.74;33.02
29383;BME280;16365;51.598;7.668;2023-04-03T11:18:19;102504.31;;;12.71;32.44
29383;BME280;16365;51.598;7.668;2023-04-03T11:20:57;102502.16;;;12.68;32.16
29383;BME280;16365;51.598;7.668;2023-04-03T11:23:25;102499.59;;;12.71;33.31
29383;BME280;16365;51.598;7.668;2023-04-03T11:26:12;102499.31;;;12.73;32.80
29383;BME280;16365;51.598;7.668;2023-04-03T11:28:39;102489.75;;;12.79;35.03
29383;BME280;16365;51.598;7.668;2023-04-03T11:31:22;102494.94;;;12.85;34.37
29383;BME280;16365;51.598;7.668;2023-04-03T11:36:33;102481.56;;;12.88;31.95
29383;BME280;16365;51.598;7.668;2023-04-03T11:39:16;102485.75;;;12.85;31.36
29383;BME280;16365;51.598;7.668;2023-04-03T11:41:45;102480.75;;;12.87;33.21
29383;BME280;16365;51.598;7.668;2023-04-03T11:44:36;102481.84;;;12.86;33.22
29383;BME280;16365;51.598;7.668;2023-04-03T11:47:11;102479.06;;;12.86;31.74
29383;BME280;16365;51.598;7.668;2023-04-03T12:08:45;102456.13;;;12.94;31.49
29383;BME280;16365;51.598;7.668;2023-04-03T12:11:37;102451.09;;;12.96;30.44
29383;BME280;16365;51.598;7.668;2023-04-03T12:14:04;102446.28;;;13.02;32.57
29383;BME280;16365;51.598;7.668;2023-04-03T12:19:33;102452.66;;;13.02;29.83
29383;BME280;16365;51.598;7.668;2023-04-03T12:22:05;102446.72;;;13.09;32.13
29383;BME280;16365;51.598;7.668;2023-04-03T12:24:36;102437.75;;;13.12;31.57
29383;BME280;16365;51.598;7.668;2023-04-03T12:27:21;102448.06;;;13.11;30.86
29383;BME280;16365;51.598;7.668;2023-04-03T12:29:55;102441.28;;;13.18;31.56
29383;BME280;16365;51.598;7.668;2023-04-03T12:32:40;102438.72;;;13.21;30.41
29383;BME280;16365;51.598;7.668;2023-04-03T12:38:14;102428.56;;;13.30;31.00
29383;BME280;16365;51.598;7.668;2023-04-03T12:40:52;102404.75;;;13.38;30.66
29383;BME280;16365;51.598;7.668;2023-04-03T12:43:43;102408.25;;;13.44;31.65
29383;BME280;16365;51.598;7.668;2023-04-03T12:46:18;102411.81;;;13.49;32.05
29383;BME280;16365;51.598;7.668;2023-04-03T12:51:22;102419.84;;;13.51;30.45
29383;BME280;16365;51.598;7.668;2023-04-03T12:54:01;102415.94;;;13.52;29.71
29383;BME280;16365;51.598;7.668;2023-04-03T12:56:30;102409.22;;;13.53;31.03
29383;BME280;16365;51.598;7.668;2023-04-03T12:59:21;102400.66;;;13.49;30.58
29383;BME280;16365;51.598;7.668;2023-04-03T13:02:00;102400.66;;;13.49;29.95
29383;BME280;16365;51.598;7.668;2023-04-03T13:04:38;102406.75;;;13.51;31.17
29383;BME280;16365;51.598;7.668;2023-04-03T13:07:05;102395.59;;;13.51;32.13
29383;BME280;16365;51.598;7.668;2023-04-03T13:09:33;102397.25;;;13.52;31.85
29383;BME280;16365;51.598;7.668;2023-04-03T13:12:12;102394.78;;;13.51;29.36
29383;BME280;16365;51.598;7.668;2023-04-03T13:14:39;102391.56;;;13.57;31.21
29383;BME280;16365;51.598;7.668;2023-04-03T13:17:13;102411.91;;;13.58;30.59
29383;BME280;16365;51.598;7.668;2023-04-03T13:19:44;102398.50;;;13.60;31.14
29383;BME280;16365;51.598;7.668;2023-04-03T13:22:36;102404.38;;;13.58;31.02
29383;BME280;16365;51.598;7.668;2023-04-03T13:25:13;102395.94;;;13.63;30.36
29383;BME280;16365;51.598;7.668;2023-04-03T13:27:42;102392.03;;;13.65;31.20
29383;BME280;16365;51.598;7.668;2023-04-03T13:30:28;102383.13;;;13.62;30.07
29383;BME280;16365;51.598;7.668;2023-04-03T13:32:58;102383.34;;;13.66;31.25
29383;BME280;16365;51.598;7.668;2023-04-03T13:35:38;102394.81;;;13.65;29.69
29383;BME280;16365;51.598;7.668;2023-04-03T13:38:23;102397.28;;;13.66;31.36
29383;BME280;16365;51.598;7.668;2023-04-03T13:40:53;102391.19;;;13.64;30.45
29383;BME280;16365;51.598;7.668;2023-04-03T13:43:26;102388.41;;;13.64;30.64
29383;BME280;16365;51.598;7.668;2023-04-03T13:48:41;102378.69;;;13.61;30.09
29383;BME280;16365;51.598;7.668;2023-04-03T13:53:50;102373.94;;;13.62;29.99
29383;BME280;16365;51.598;7.668;2023-04-03T13:56:30;102385.63;;;13.64;31.07
29383;BME280;16365;51.598;7.668;2023-04-03T14:01:50;102360.44;;;13.69;31.55
29383;BME280;16365;51.598;7.668;2023-04-03T14:04:28;102360.44;;;13.69;31.25
29383;BME280;16365;51.598;7.668;2023-04-03T14:06:56;102366.41;;;13.76;31.12
29383;BME280;16365;51.598;7.668;2023-04-03T14:09:25;102351.34;;;13.77;30.59
29383;BME280;16365;51.598;7.668;2023-04-03T14:12:00;102345.75;;;13.77;29.59
29383;BME280;16365;51.598;7.668;2023-04-03T14:14:34;102354.34;;;13.81;30.18
29383;BME280;16365;51.598;7.668;2023-04-03T14:17:03;102352.09;;;13.83;31.58
29383;BME280;16365;51.598;7.668;2023-04-03T14:19:52;102345.03;;;13.85;30.93
29383;BME280;16365;51.598;7.668;2023-04-03T14:22:22;102348.97;;;13.84;31.06
29383;BME280;16365;51.598;7.668;2023-04-03T14:24:50;102345.88;;;13.86;30.62
29383;BME280;16365;51.598;7.668;2023-04-03T14:27:27;102341.44;;;13.85;30.60
29383;BME280;16365;51.598;7.668;2023-04-03T14:30:03;102354.22;;;13.86;29.93
29383;BME280;16365;51.598;7.668;2023-04-03T14:32:30;102341.94;;;13.87;30.34
29383;BME280;16365;51.598;7.668;2023-04-03T14:34:58;102342.56;;;13.84;30.79